createdAt,value
2023-10-09T00:00:27.184Z,67.25
2023-10-09T00:02:53.621Z,67.85
2023-10-09T00:05:20.129Z,68.15
2023-10-09T00:07:46.470Z,67.69
2023-10-09T00:10:12.875Z,66.86
2023-10-09T00:12:39.243Z,67.42
2023-10-09T00:15:06.006Z,67.05
2023-10-09T00:17:32.590Z,66.58
2023-10-09T00:19:59.137Z,66.60
2023-10-09T00:22:25.508Z,68.65
2023-10-09T00:24:52.857Z,67.56
2023-10-09T00:27:19.290Z,66.77
2023-10-09T00:29:46.160Z,66.55
2023-10-09T00:32:13.721Z,67.27
2023-10-09T00:34:41.257Z,68.71
2023-10-09T00:37:08.834Z,68.17
2023-10-09T00:39:35.231Z,68.15
2023-10-09T00:42:01.630Z,68.57
2023-10-09T00:44:28.507Z,69.34
2023-10-09T00:46:54.895Z,67.18
2023-10-09T00:49:21.274Z,67.28
2023-10-09T00:51:52.626Z,66.81
2023-10-09T00:54:19.099Z,67.06
2023-10-09T00:56:46.185Z,67.33
2023-10-09T00:59:17.182Z,67.84
2023-10-09T01:01:43.992Z,69.31
2023-10-09T01:04:10.586Z,67.70
2023-10-09T01:06:42.696Z,68.70
2023-10-09T01:09:09.077Z,67.92
2023-10-09T01:11:35.494Z,67.93
2023-10-09T01:14:01.881Z,67.80
2023-10-09T01:16:28.335Z,68.43
2023-10-09T01:18:56.175Z,68.06
2023-10-09T01:21:22.583Z,68.43
2023-10-09T01:23:48.962Z,69.45
2023-10-09T01:26:15.313Z,69.21
2023-10-09T01:28:41.667Z,69.17
2023-10-09T01:31:08.054Z,69.33
2023-10-09T01:33:34.476Z,69.63
2023-10-09T01:36:00.923Z,69.48
2023-10-09T01:38:27.299Z,69.66
2023-10-09T01:40:53.639Z,70.12
2023-10-09T01:43:20.010Z,70.25
2023-10-09T01:45:46.386Z,73.02
2023-10-09T01:48:13.769Z,70.93
2023-10-09T01:50:40.225Z,70.92
2023-10-09T01:53:06.582Z,70.82
2023-10-09T01:55:33.245Z,70.95
2023-10-09T01:57:59.906Z,71.02
2023-10-09T02:00:26.288Z,71.35
2023-10-09T02:02:52.709Z,71.58
2023-10-09T02:05:19.191Z,71.51
2023-10-09T02:07:45.923Z,71.59
2023-10-09T02:10:15.241Z,72.18
2023-10-09T02:12:41.588Z,72.37
2023-10-09T02:15:08.534Z,73.59
2023-10-09T02:17:34.936Z,73.30
2023-10-09T02:20:01.326Z,75.18
2023-10-09T02:22:27.674Z,73.64
2023-10-09T02:24:54.041Z,76.09
2023-10-09T02:27:20.790Z,76.50
2023-10-09T02:29:47.459Z,75.52
2023-10-09T02:32:14.577Z,74.84
2023-10-09T02:34:41.521Z,75.71
2023-10-09T02:37:07.875Z,75.29
2023-10-09T02:39:34.269Z,75.72
2023-10-09T02:42:00.677Z,77.30
2023-10-09T02:44:27.445Z,72.95
2023-10-09T02:46:53.903Z,72.61
2023-10-09T02:49:20.274Z,73.72
2023-10-09T02:51:46.621Z,72.54
2023-10-09T02:54:13.240Z,73.74
2023-10-09T02:56:39.769Z,73.02
2023-10-09T02:59:06.425Z,73.05
2023-10-09T03:01:37.575Z,72.27
2023-10-09T03:04:05.578Z,72.16
2023-10-09T03:06:33.506Z,72.73
2023-10-09T03:08:59.982Z,75.40
2023-10-09T03:11:26.519Z,74.64
2023-10-09T03:13:53.536Z,72.56
2023-10-09T03:16:22.308Z,71.66
2023-10-09T03:18:53.873Z,74.00
2023-10-09T03:21:20.972Z,75.31
2023-10-09T03:23:48.972Z,72.94
2023-10-09T03:28:48.214Z,72.54
2023-10-09T03:31:14.958Z,71.72
2023-10-09T03:33:42.192Z,70.84
2023-10-09T03:36:08.758Z,72.68
2023-10-09T03:38:35.127Z,72.41
2023-10-09T03:41:05.324Z,71.31
2023-10-09T03:43:31.687Z,70.45
2023-10-09T03:45:58.042Z,72.81
2023-10-09T03:48:24.428Z,72.13
2023-10-09T03:50:50.863Z,71.48
2023-10-09T03:53:17.250Z,75.76
2023-10-09T03:55:43.592Z,75.92
2023-10-09T03:58:10.194Z,72.16
2023-10-09T04:00:36.601Z,76.42
2023-10-09T04:03:03.264Z,75.01
2023-10-09T04:05:29.814Z,72.18
2023-10-09T04:07:56.459Z,70.28
2023-10-09T04:10:22.921Z,71.14
2023-10-09T04:12:49.259Z,72.38
2023-10-09T04:15:15.614Z,74.34
2023-10-09T04:17:42.030Z,72.08
2023-10-09T04:20:08.870Z,73.40
2023-10-09T04:22:35.533Z,74.44
2023-10-09T04:25:01.915Z,73.38
2023-10-09T04:27:28.277Z,70.79
2023-10-09T04:29:54.691Z,70.42
2023-10-09T04:32:21.337Z,69.07
2023-10-09T04:34:47.702Z,73.06
2023-10-09T04:37:14.033Z,71.76
2023-10-09T04:39:40.573Z,69.41
2023-10-09T04:42:07.014Z,69.34
2023-10-09T04:44:33.415Z,74.68
2023-10-09T04:46:59.790Z,74.89
2023-10-09T04:49:26.158Z,71.68
2023-10-09T04:51:52.518Z,70.45
2023-10-09T04:54:18.933Z,69.53
2023-10-09T04:56:45.300Z,68.13
2023-10-09T04:59:12.002Z,71.29
2023-10-09T05:01:38.468Z,69.25
2023-10-09T05:04:05.592Z,70.26
2023-10-09T05:06:32.160Z,69.60
2023-10-09T05:08:58.622Z,67.97
2023-10-09T05:11:24.999Z,70.56
2023-10-09T05:13:51.497Z,71.39
2023-10-09T05:16:20.067Z,71.64
2023-10-09T05:18:47.905Z,68.45
2023-10-09T05:21:14.411Z,74.30
2023-10-09T05:23:41.238Z,71.22
2023-10-09T05:26:07.620Z,74.68
2023-10-09T05:28:33.983Z,75.65
2023-10-09T05:31:00.502Z,72.70
2023-10-09T05:33:26.857Z,74.95
2023-10-09T05:35:53.250Z,68.92
2023-10-09T05:38:19.629Z,70.51
2023-10-09T05:40:46.766Z,70.88
2023-10-09T05:43:13.297Z,71.30
2023-10-09T05:45:39.748Z,71.00
2023-10-09T05:48:06.536Z,71.55
2023-10-09T05:50:33.555Z,74.20
2023-10-09T05:53:00.149Z,73.97
2023-10-09T05:55:27.137Z,68.69
2023-10-09T05:57:57.396Z,71.60
2023-10-09T06:00:24.339Z,67.66
2023-10-09T06:03:01.089Z,66.19
2023-10-09T06:05:28.378Z,68.65
2023-10-09T06:07:54.780Z,67.63
2023-10-09T06:10:21.139Z,66.54
2023-10-09T06:12:49.892Z,71.09
2023-10-09T06:15:18.220Z,71.57
2023-10-09T06:17:44.866Z,69.73
2023-10-09T06:20:11.697Z,68.44
2023-10-09T06:22:38.076Z,67.90
2023-10-09T06:25:04.780Z,70.03
2023-10-09T06:27:31.542Z,67.54
2023-10-09T06:29:59.540Z,69.05
2023-10-09T06:32:26.021Z,67.51
2023-10-09T06:34:54.525Z,66.65
2023-10-09T06:37:21.270Z,68.81
2023-10-09T06:39:47.645Z,71.07
2023-10-09T06:42:14.022Z,70.60
2023-10-09T06:44:40.401Z,68.33
2023-10-09T06:47:06.786Z,65.01
2023-10-09T06:49:33.126Z,68.52
2023-10-09T06:51:59.549Z,65.87
2023-10-09T06:54:25.983Z,67.13
2023-10-09T06:56:52.412Z,66.16
2023-10-09T06:59:18.766Z,68.67
2023-10-09T07:01:45.263Z,68.46
2023-10-09T07:04:13.256Z,71.47
2023-10-09T07:06:39.841Z,72.15
2023-10-09T07:09:06.336Z,65.41
2023-10-09T07:11:37.379Z,67.28
2023-10-09T07:14:03.774Z,66.01
2023-10-09T07:16:30.243Z,66.88
2023-10-09T07:18:57.356Z,64.55
2023-10-09T07:21:23.738Z,67.19
2023-10-09T07:23:50.192Z,66.46
2023-10-09T07:26:16.588Z,65.97
2023-10-09T07:28:42.965Z,68.48
2023-10-09T07:31:09.723Z,68.21
2023-10-09T07:33:36.148Z,64.86
2023-10-09T07:36:02.902Z,66.03
2023-10-09T07:38:29.342Z,69.94
2023-10-09T07:40:56.917Z,66.42
2023-10-09T07:43:23.885Z,67.23
2023-10-09T07:45:50.296Z,68.59
2023-10-09T07:48:16.720Z,68.50
2023-10-09T07:50:43.090Z,70.12
2023-10-09T07:53:09.511Z,69.47
2023-10-09T07:55:40.346Z,71.55
2023-10-09T07:58:06.733Z,66.70
2023-10-09T08:00:33.192Z,68.70
2023-10-09T08:02:59.799Z,65.46
2023-10-09T08:05:26.159Z,66.96
2023-10-09T08:08:04.856Z,65.96
2023-10-09T08:10:40.387Z,63.07
2023-10-09T08:13:06.766Z,66.17
2023-10-09T08:15:33.166Z,66.31
2023-10-09T08:17:59.573Z,66.08
2023-10-09T08:20:27.539Z,66.77
2023-10-09T08:22:54.397Z,67.98
2023-10-09T08:25:20.782Z,66.89
2023-10-09T08:27:47.206Z,64.33
2023-10-09T08:30:13.770Z,67.77
2023-10-09T08:35:10.560Z,66.40
2023-10-09T08:37:37.195Z,68.01
2023-10-09T08:40:03.868Z,67.19
2023-10-09T08:42:30.397Z,70.97
2023-10-09T08:44:58.184Z,69.76
2023-10-09T08:47:24.572Z,67.97
2023-10-09T08:49:51.218Z,65.43
2023-10-09T08:52:17.655Z,66.31
2023-10-09T08:54:44.881Z,64.67
2023-10-09T08:57:11.316Z,64.69
2023-10-09T08:59:43.478Z,67.93
2023-10-09T09:02:10.784Z,67.02
2023-10-09T09:04:38.395Z,68.82
2023-10-09T09:07:05.860Z,70.56
2023-10-09T09:09:32.745Z,67.33
2023-10-09T09:11:59.186Z,68.50
2023-10-09T09:14:37.094Z,74.00
2023-10-09T09:17:04.079Z,69.01
2023-10-09T09:19:33.610Z,67.06
2023-10-09T09:22:00.188Z,68.78
2023-10-09T09:24:26.942Z,69.68
2023-10-09T09:27:04.077Z,69.13
2023-10-09T09:29:36.180Z,71.44
2023-10-09T09:32:02.638Z,71.16
2023-10-09T09:34:29.052Z,71.92
2023-10-09T09:36:57.173Z,74.63
2023-10-09T09:39:35.522Z,73.11
2023-10-09T09:42:06.716Z,74.64
2023-10-09T09:44:33.681Z,74.08
2023-10-09T09:47:01.356Z,68.70
2023-10-09T09:49:31.343Z,72.50
2023-10-09T09:51:58.138Z,64.68
2023-10-09T09:54:27.677Z,68.10
2023-10-09T09:56:55.365Z,65.54
2023-10-09T09:59:27.184Z,66.08
2023-10-09T10:01:57.541Z,68.98
2023-10-09T10:04:29.246Z,65.96
2023-10-09T10:06:56.665Z,69.17
2023-10-09T10:09:42.116Z,66.66
2023-10-09T10:12:12.762Z,67.61
2023-10-09T10:14:51.195Z,67.46
2023-10-09T10:17:18.009Z,67.00
2023-10-09T10:20:02.531Z,70.50
2023-10-09T10:22:30.682Z,70.16
2023-10-09T10:24:57.849Z,71.36
2023-10-09T10:27:27.600Z,71.79
2023-10-09T10:30:12.520Z,70.36
2023-10-09T10:32:58.594Z,74.80
2023-10-09T10:35:25.232Z,74.38
2023-10-09T10:37:51.867Z,73.09
2023-10-09T10:40:25.101Z,71.91
2023-10-09T10:42:51.463Z,74.22
2023-10-09T10:45:19.411Z,72.69
2023-10-09T10:47:45.926Z,68.52
2023-10-09T10:50:13.434Z,67.15
2023-10-09T10:52:39.878Z,68.60
2023-10-09T10:55:11.158Z,71.62
2023-10-09T10:57:37.773Z,73.95
2023-10-09T11:00:12.203Z,72.27
2023-10-09T11:02:39.186Z,72.03
2023-10-09T11:05:06.369Z,71.74
2023-10-09T11:07:32.902Z,67.67
2023-10-09T11:09:59.624Z,70.60
2023-10-09T11:12:28.151Z,69.37
2023-10-09T11:14:54.518Z,71.30
2023-10-09T11:17:21.341Z,74.49
2023-10-09T11:19:48.368Z,71.01
2023-10-09T11:22:15.022Z,69.19
2023-10-09T11:24:41.968Z,73.27
2023-10-09T11:27:09.229Z,72.36
2023-10-09T11:29:36.811Z,72.07
2023-10-09T11:32:08.008Z,72.10
2023-10-09T11:34:35.008Z,68.54
2023-10-09T11:37:14.192Z,70.81
2023-10-09T11:39:40.732Z,71.92
2023-10-09T11:42:15.588Z,70.96
2023-10-09T11:44:43.268Z,73.92
2023-10-09T11:47:09.704Z,71.98
2023-10-09T11:49:36.163Z,71.29
2023-10-09T11:52:06.952Z,71.14
2023-10-09T11:54:34.013Z,70.23
2023-10-09T11:57:00.850Z,71.07
2023-10-09T11:59:27.444Z,73.33
2023-10-09T12:01:54.617Z,69.79
2023-10-09T12:04:21.244Z,73.53
2023-10-09T12:06:47.676Z,71.91
2023-10-09T12:09:14.047Z,72.79
2023-10-09T12:11:54.067Z,72.56
2023-10-09T12:14:26.852Z,72.07
2023-10-09T12:16:53.289Z,73.88
2023-10-09T12:19:19.698Z,72.87
2023-10-09T12:21:46.081Z,70.80
2023-10-09T12:24:12.454Z,69.69
2023-10-09T12:26:39.323Z,72.83
2023-10-09T12:29:06.333Z,70.14
2023-10-09T12:31:32.752Z,73.36
2023-10-09T12:33:59.184Z,73.97
2023-10-09T12:36:25.647Z,70.57
2023-10-09T12:38:52.351Z,70.41
2023-10-09T12:41:18.797Z,71.74
2023-10-09T12:43:45.224Z,69.33
2023-10-09T12:46:11.718Z,68.93
2023-10-09T12:48:38.145Z,72.41
2023-10-09T12:51:04.564Z,71.61
2023-10-09T12:53:32.678Z,70.45
2023-10-09T12:55:59.296Z,70.46
2023-10-09T12:58:25.839Z,69.19
2023-10-09T13:00:52.232Z,74.75
2023-10-09T13:03:19.807Z,72.62
2023-10-09T13:05:51.545Z,70.05
2023-10-09T13:08:17.937Z,74.10
2023-10-09T13:10:44.375Z,72.18
2023-10-09T13:13:10.814Z,70.81
2023-10-09T13:15:37.176Z,68.44
2023-10-09T13:18:03.809Z,69.28
2023-10-09T13:20:30.189Z,69.37
2023-10-09T13:22:56.593Z,74.05
2023-10-09T13:25:34.571Z,72.51
2023-10-09T13:28:02.226Z,68.38
2023-10-09T13:30:28.619Z,67.93
2023-10-09T13:32:55.081Z,68.98
2023-10-09T13:35:21.517Z,69.50
2023-10-09T13:37:47.923Z,69.56
2023-10-09T13:40:14.848Z,69.67
2023-10-09T13:42:41.213Z,69.70
2023-10-09T13:45:08.188Z,69.00
2023-10-09T13:47:34.655Z,70.34
2023-10-09T13:50:01.180Z,72.92
2023-10-09T13:52:27.607Z,71.45
2023-10-09T13:54:53.982Z,68.75
2023-10-09T13:57:20.375Z,68.59
2023-10-09T13:59:46.735Z,70.58
2023-10-09T14:02:13.149Z,68.06
2023-10-09T14:04:39.719Z,69.78
2023-10-09T14:07:06.192Z,69.66
2023-10-09T14:09:32.816Z,68.54
2023-10-09T14:12:01.147Z,67.76
2023-10-09T14:14:27.547Z,68.00
2023-10-09T14:16:53.923Z,68.06
2023-10-09T14:19:20.309Z,68.05
2023-10-09T14:21:46.673Z,69.85
2023-10-09T14:24:13.552Z,69.60
2023-10-09T14:26:41.000Z,71.20
2023-10-09T14:29:07.436Z,68.97
2023-10-09T14:31:33.976Z,68.64
2023-10-09T14:34:00.440Z,68.87
2023-10-09T14:36:26.797Z,69.65
2023-10-09T14:38:53.202Z,69.40
2023-10-09T14:41:21.088Z,69.32
2023-10-09T14:43:47.471Z,69.88
2023-10-09T14:46:14.885Z,71.80
2023-10-09T14:48:41.307Z,72.28
2023-10-09T14:51:08.127Z,70.79
2023-10-09T14:53:34.672Z,70.07
2023-10-09T14:56:01.569Z,71.04
2023-10-09T14:58:28.844Z,72.06
2023-10-09T15:00:55.473Z,69.29
2023-10-09T15:03:22.659Z,69.13
2023-10-09T15:05:52.275Z,69.49
2023-10-09T15:08:18.700Z,70.26
2023-10-09T15:10:46.741Z,69.00
2023-10-09T15:13:13.120Z,68.67
2023-10-09T15:15:42.487Z,68.88
2023-10-09T15:18:08.978Z,68.97
2023-10-09T15:20:36.171Z,69.46
2023-10-09T15:23:02.628Z,69.48
2023-10-09T15:25:29.022Z,69.25
2023-10-09T15:27:55.385Z,69.78
2023-10-09T15:30:21.881Z,70.56
2023-10-09T15:32:48.286Z,69.61
2023-10-09T15:35:15.157Z,69.18
2023-10-09T15:37:42.912Z,68.61
2023-10-09T15:40:09.676Z,72.79
2023-10-09T15:42:37.790Z,70.56
2023-10-09T15:45:04.630Z,73.26
2023-10-09T15:47:31.069Z,68.61
2023-10-09T15:49:57.469Z,70.65
2023-10-09T15:52:23.877Z,75.39
2023-10-09T15:54:50.222Z,69.78
2023-10-09T15:57:16.594Z,71.95
2023-10-09T15:59:42.939Z,68.81
2023-10-09T16:02:09.357Z,70.52
2023-10-09T16:04:35.813Z,69.47
2023-10-09T16:07:02.327Z,72.42
2023-10-09T16:09:28.688Z,71.93
2023-10-09T16:11:55.265Z,69.56
2023-10-09T16:14:21.712Z,71.16
2023-10-09T16:16:48.099Z,72.00
2023-10-09T16:19:14.514Z,73.42
2023-10-09T16:21:40.950Z,72.81
2023-10-09T16:24:08.384Z,76.70
2023-10-09T16:26:34.728Z,71.89
2023-10-09T16:29:01.120Z,73.42
2023-10-09T16:31:28.995Z,72.83
2023-10-09T16:33:55.390Z,79.25
2023-10-09T16:36:21.739Z,75.79
2023-10-09T16:38:48.173Z,79.15
2023-10-09T16:41:14.589Z,78.94
2023-10-09T16:43:41.062Z,80.02
2023-10-09T16:46:07.703Z,80.20
2023-10-09T16:48:34.169Z,75.43
2023-10-09T16:51:06.191Z,72.65
2023-10-09T16:53:34.527Z,70.00
2023-10-09T16:56:02.024Z,68.30
2023-10-09T16:58:28.471Z,68.98
2023-10-09T17:00:57.149Z,69.19
2023-10-09T17:03:23.799Z,68.87
2023-10-09T17:05:52.161Z,69.90
2023-10-09T17:08:18.596Z,70.14
2023-10-09T17:10:45.000Z,70.83
2023-10-09T17:13:12.130Z,71.45
2023-10-09T17:15:38.780Z,77.00
2023-10-09T17:18:05.386Z,78.36
2023-10-09T17:20:31.942Z,72.28
2023-10-09T17:22:58.663Z,71.46
2023-10-09T17:25:25.311Z,70.75
2023-10-09T17:27:51.646Z,77.71
2023-10-09T17:30:18.063Z,76.15
2023-10-09T17:32:47.968Z,72.80
2023-10-09T17:35:14.963Z,71.99
2023-10-09T17:37:42.577Z,69.92
2023-10-09T17:40:10.084Z,71.99
2023-10-09T17:42:36.908Z,71.00
2023-10-09T17:45:04.111Z,72.57
2023-10-09T17:47:30.572Z,72.09
2023-10-09T17:49:57.027Z,70.64
2023-10-09T17:52:23.488Z,71.39
2023-10-09T17:54:49.928Z,71.13
2023-10-09T17:57:16.310Z,70.11
2023-10-09T17:59:42.664Z,69.76
2023-10-09T18:02:09.096Z,69.97
2023-10-09T18:04:35.553Z,70.51
2023-10-09T18:07:03.441Z,72.27
2023-10-09T18:09:29.829Z,70.51
2023-10-09T18:11:56.213Z,77.21
2023-10-09T18:14:23.498Z,75.49
2023-10-09T18:16:50.532Z,72.70
2023-10-09T18:19:17.189Z,70.82
2023-10-09T18:21:43.540Z,71.11
2023-10-09T18:24:10.832Z,75.24
2023-10-09T18:26:37.190Z,74.93
2023-10-09T18:29:05.261Z,71.79
2023-10-09T18:31:33.401Z,71.22
2023-10-09T18:33:59.781Z,71.56
2023-10-09T18:36:26.133Z,72.71
2023-10-09T18:38:53.130Z,77.10
2023-10-09T18:41:20.089Z,75.85
2023-10-09T18:43:46.618Z,73.35
2023-10-09T18:46:13.381Z,73.80
2023-10-09T18:48:39.934Z,74.87
2023-10-09T18:51:06.307Z,76.09
2023-10-09T18:53:32.672Z,74.30
2023-10-09T18:55:59.293Z,74.03
2023-10-09T18:58:25.672Z,75.53
2023-10-09T19:00:52.065Z,75.17
2023-10-09T19:03:18.914Z,74.07
2023-10-09T19:05:45.486Z,73.92
2023-10-09T19:08:12.885Z,74.18
2023-10-09T19:10:39.991Z,76.70
2023-10-09T19:13:06.345Z,78.80
2023-10-09T19:15:32.720Z,76.39
2023-10-09T19:17:59.469Z,75.84
2023-10-09T19:20:26.083Z,76.71
2023-10-09T19:22:52.602Z,76.47
2023-10-09T19:25:19.042Z,75.59
2023-10-09T19:27:47.862Z,76.04
2023-10-09T19:30:14.450Z,76.98
2023-10-09T19:32:40.870Z,76.79
2023-10-09T19:35:08.097Z,76.86
2023-10-09T19:37:34.539Z,76.69
2023-10-09T19:40:00.901Z,77.04
2023-10-09T19:42:27.247Z,77.44
2023-10-09T19:44:53.602Z,76.78
2023-10-09T19:47:19.960Z,76.77
2023-10-09T19:49:47.467Z,76.98
2023-10-09T19:52:13.892Z,76.94
2023-10-09T19:54:40.257Z,76.47
2023-10-09T19:57:06.602Z,76.45
2023-10-09T19:59:33.006Z,76.84
2023-10-09T20:01:59.466Z,76.70
2023-10-09T20:04:26.005Z,76.71
2023-10-09T20:06:52.362Z,76.75
2023-10-09T20:09:18.928Z,76.73
2023-10-09T20:11:45.280Z,76.78
2023-10-09T20:14:11.680Z,76.60
2023-10-09T20:16:38.181Z,76.51
2023-10-09T20:19:04.664Z,76.33
2023-10-09T20:21:31.040Z,76.64
2023-10-09T20:23:57.378Z,76.96
2023-10-09T20:26:23.745Z,77.25
2023-10-09T20:28:50.257Z,77.35
2023-10-09T20:31:16.727Z,77.08
2023-10-09T20:33:43.442Z,77.10
2023-10-09T20:36:11.825Z,76.96
2023-10-09T20:38:38.536Z,77.04
2023-10-09T20:41:05.671Z,77.01
2023-10-09T20:43:32.074Z,77.10
2023-10-09T20:45:58.445Z,76.82
2023-10-09T20:48:24.812Z,76.51
2023-10-09T20:50:51.174Z,76.65
2023-10-09T20:53:17.618Z,76.16
2023-10-09T20:55:51.268Z,76.97
2023-10-09T20:58:18.309Z,76.26
2023-10-09T21:00:44.670Z,76.08
2023-10-09T21:03:11.121Z,75.67
2023-10-09T21:05:37.520Z,76.15
2023-10-09T21:08:04.142Z,76.22
2023-10-09T21:10:30.568Z,76.01
2023-10-09T21:12:56.960Z,76.10
2023-10-09T21:15:24.252Z,75.78
2023-10-09T21:17:50.738Z,75.74
2023-10-09T21:20:17.389Z,75.57
2023-10-09T21:22:44.959Z,75.10
2023-10-09T21:25:11.469Z,75.81
2023-10-09T21:27:38.113Z,75.17
2023-10-09T21:30:05.045Z,75.20
2023-10-09T21:32:31.939Z,75.56
2023-10-09T21:34:58.545Z,75.07
2023-10-09T21:37:24.939Z,74.54
2023-10-09T21:39:51.289Z,74.33
2023-10-09T21:42:17.627Z,74.13
2023-10-09T21:44:43.982Z,73.92
2023-10-09T21:47:10.400Z,74.07
2023-10-09T21:49:36.767Z,73.56
2023-10-09T21:52:03.104Z,73.68
2023-10-09T21:54:29.462Z,73.31
2023-10-09T21:56:55.859Z,73.25
2023-10-09T21:59:22.301Z,73.36
2023-10-09T22:01:51.643Z,73.11
2023-10-09T22:04:18.224Z,73.18
2023-10-09T22:06:44.675Z,73.98
2023-10-09T22:09:11.058Z,72.89
2023-10-09T22:11:37.403Z,72.79
2023-10-09T22:14:03.783Z,72.42
2023-10-09T22:16:30.203Z,72.20
2023-10-09T22:19:13.087Z,72.67
2023-10-09T22:21:42.080Z,71.81
2023-10-09T22:24:08.564Z,72.92
2023-10-09T22:26:34.926Z,71.88
2023-10-09T22:29:01.333Z,71.77
2023-10-09T22:31:27.892Z,72.05
2023-10-09T22:33:54.267Z,71.74
2023-10-09T22:36:21.222Z,71.66
2023-10-09T22:38:47.559Z,72.79
2023-10-09T22:41:13.976Z,71.68
2023-10-09T22:43:40.341Z,71.30
2023-10-09T22:46:08.591Z,71.19
2023-10-09T22:48:35.099Z,71.20
2023-10-09T22:51:01.463Z,70.68
2023-10-09T22:53:27.874Z,70.84
2023-10-09T22:55:54.275Z,72.90
2023-10-09T22:58:22.312Z,72.86
2023-10-09T23:00:48.705Z,72.90
2023-10-09T23:03:16.686Z,72.36
2023-10-09T23:05:43.149Z,74.20
2023-10-09T23:08:09.591Z,72.67
2023-10-09T23:10:35.978Z,72.89
2023-10-09T23:13:02.353Z,72.04
2023-10-09T23:15:28.851Z,72.87
2023-10-09T23:17:55.288Z,71.50
2023-10-09T23:20:21.765Z,70.82
2023-10-09T23:22:48.179Z,71.64
2023-10-09T23:25:15.222Z,72.19
2023-10-09T23:27:41.607Z,70.83
2023-10-09T23:30:09.752Z,70.72
2023-10-09T23:32:37.129Z,70.71
2023-10-09T23:35:04.371Z,71.99
2023-10-09T23:37:30.742Z,70.48
2023-10-09T23:39:57.083Z,71.43
2023-10-09T23:42:23.441Z,73.25
2023-10-09T23:44:49.791Z,72.52
2023-10-09T23:47:16.197Z,70.65
2023-10-09T23:49:42.900Z,71.39
2023-10-09T23:52:09.254Z,72.84
2023-10-09T23:54:35.614Z,71.53
2023-10-09T23:57:01.951Z,71.06
2023-10-09T23:59:28.403Z,70.30
